Time;durP1;ratioP1;P1;durP2;ratioP2;P2;SDS_P1;SDS_P2;PMS_P1;PMS_P2;Temp;Humidity;BMP_temperature;BMP_pressure;BME280_temperature;BME280_humidity;BME280_pressure;Samples;Min_cycle;Max_cycle;Signal;HPM_P1;HPM_P2
2023/12/04 00:00:07;;;;;;;24.87;12.20;;;-0.60;99.90;;;;;;5077395;28;20618;-79
2023/12/04 00:02:33;;;;;;;21.87;12.00;;;-0.60;99.90;;;;;;5074866;28;20200;-79
2023/12/04 00:05:03;;;;;;;24.77;11.30;;;-0.60;99.90;;;;;;5073580;28;20202;-80
2023/12/04 00:07:30;;;;;;;24.17;12.40;;;-0.60;99.90;;;;;;5075325;28;20797;-79
2023/12/04 00:09:57;;;;;;;22.10;11.67;;;-0.60;99.90;;;;;;5072533;28;20710;-78
2023/12/04 00:12:23;;;;;;;24.00;12.97;;;-0.60;99.90;;;;;;5074253;28;20198;-79
2023/12/04 00:14:50;;;;;;;22.30;11.37;;;-0.60;99.90;;;;;;5071627;28;20194;-80
2023/12/04 00:17:18;;;;;;;24.93;12.57;;;-0.60;99.90;;;;;;5075943;28;20597;-79
2023/12/04 00:19:45;;;;;;;23.43;12.23;;;-0.60;99.90;;;;;;5075382;28;20244;-79
2023/12/04 00:22:13;;;;;;;21.37;10.97;;;-0.70;99.90;;;;;;5074401;28;20201;-79
2023/12/04 00:24:40;;;;;;;22.60;12.03;;;-0.60;1.00;;;;;;5070944;28;20206;-79
2023/12/04 00:27:06;;;;;;;24.03;11.43;;;-0.60;1.00;;;;;;5067794;28;20198;-79
2023/12/04 00:29:33;;;;;;;20.80;10.73;;;-0.70;1.00;;;;;;5064499;28;20226;-80
2023/12/04 00:32:00;;;;;;;21.13;10.70;;;-0.70;1.00;;;;;;5070821;28;20195;-79
2023/12/04 00:34:27;;;;;;;21.67;8.97;;;-0.70;1.00;;;;;;5065238;28;20195;-81
2023/12/04 00:36:54;;;;;;;19.97;10.17;;;-0.60;1.00;;;;;;5069768;28;20222;-80
2023/12/04 00:39:24;;;;;;;19.00;10.03;;;-0.60;1.00;;;;;;5069494;28;20222;-80
2023/12/04 00:41:51;;;;;;;18.57;9.47;;;-0.50;1.00;;;;;;5062397;28;20199;-79
2023/12/04 00:44:18;;;;;;;17.03;7.43;;;-0.50;99.90;;;;;;5069400;28;20203;-79
2023/12/04 00:46:45;;;;;;;21.13;10.43;;;-0.40;99.90;;;;;;5071882;28;20199;-79
2023/12/04 00:49:11;;;;;;;19.77;9.90;;;-0.40;99.90;;;;;;5070054;28;20262;-79
2023/12/04 00:51:39;;;;;;;19.77;10.43;;;-0.40;99.90;;;;;;5069051;28;20302;-80
2023/12/04 00:54:06;;;;;;;18.97;9.80;;;-0.50;99.90;;;;;;5072350;28;20207;-78
2023/12/04 00:56:34;;;;;;;24.27;10.97;;;-0.50;99.90;;;;;;5068453;28;20229;-81
2023/12/04 00:59:01;;;;;;;18.93;9.33;;;-0.50;99.90;;;;;;5069083;28;20229;-79
2023/12/04 01:01:28;;;;;;;22.67;10.83;;;-0.40;99.90;;;;;;5071057;28;20203;-79
2023/12/04 01:03:55;;;;;;;22.90;10.53;;;-0.50;99.90;;;;;;5065848;28;20679;-79
2023/12/04 01:06:23;;;;;;;23.17;10.97;;;-0.50;99.90;;;;;;5074445;28;20636;-79
2023/12/04 01:08:50;;;;;;;21.77;11.27;;;-0.50;99.90;;;;;;5068444;28;20218;-79
2023/12/04 01:11:17;;;;;;;21.00;10.20;;;-0.50;99.90;;;;;;5069480;28;20194;-79
2023/12/04 01:13:45;;;;;;;22.90;10.70;;;-0.40;99.90;;;;;;5068314;28;20565;-79
2023/12/04 01:16:12;;;;;;;17.97;8.83;;;-0.40;99.90;;;;;;5069271;28;20581;-79
2023/12/04 01:18:39;;;;;;;20.70;10.70;;;-0.40;99.90;;;;;;5072379;28;20789;-79
2023/12/04 01:21:08;;;;;;;18.60;8.87;;;-0.40;99.90;;;;;;5072747;28;20594;-80
2023/12/04 01:23:35;;;;;;;20.07;9.33;;;-0.30;99.90;;;;;;5071731;28;20198;-81
2023/12/04 01:26:02;;;;;;;22.43;10.93;;;-0.40;99.90;;;;;;5066149;28;20555;-80
2023/12/04 01:28:29;;;;;;;20.27;11.57;;;-0.40;99.90;;;;;;5071453;28;20261;-80
2023/12/04 01:30:57;;;;;;;19.73;10.13;;;-0.40;99.90;;;;;;5069674;28;20194;-80
2023/12/04 01:33:24;;;;;;;20.27;9.17;;;-0.40;99.90;;;;;;5070834;28;20207;-80
2023/12/04 01:35:52;;;;;;;21.27;10.70;;;-0.40;99.90;;;;;;5066037;28;20217;-79
2023/12/04 01:38:19;;;;;;;23.00;12.00;;;-0.40;1.00;;;;;;5066087;28;20236;-79
2023/12/04 01:40:45;;;;;;;18.50;10.17;;;-0.40;1.00;;;;;;5066980;28;20199;-79
2023/12/04 01:43:12;;;;;;;19.70;9.80;;;-0.40;99.90;;;;;;5063724;28;20202;-80
2023/12/04 01:45:39;;;;;;;21.23;10.40;;;-0.40;1.00;;;;;;5071420;28;20207;-79
2023/12/04 01:48:08;;;;;;;18.80;9.63;;;-0.40;1.00;;;;;;5065249;28;20661;-79
2023/12/04 01:50:36;;;;;;;20.63;9.97;;;-0.50;1.00;;;;;;5063321;28;20245;-79
2023/12/04 01:53:03;;;;;;;19.30;9.40;;;-0.50;1.00;;;;;;5069487;28;20205;-79
2023/12/04 01:55:31;;;;;;;20.37;9.63;;;-0.50;1.00;;;;;;5070526;28;20222;-79
2023/12/04 01:57:59;;;;;;;20.10;9.00;;;-0.50;1.00;;;;;;5069857;28;20194;-79
2023/12/04 02:00:26;;;;;;;20.30;10.53;;;-0.50;1.00;;;;;;5063273;28;20218;-79
2023/12/04 02:02:53;;;;;;;19.07;9.93;;;-0.50;20.20;;;;;;5067087;28;20194;-79
2023/12/04 02:05:23;;;;;;;20.17;9.07;;;-0.50;99.90;;;;;;5067444;28;20203;-79
2023/12/04 02:07:50;;;;;;;20.47;10.00;;;-0.50;99.90;;;;;;5065474;28;20205;-79
2023/12/04 02:10:16;;;;;;;22.47;11.23;;;-0.60;99.90;;;;;;5067271;28;20229;-80
2023/12/04 02:12:43;;;;;;;19.70;11.20;;;-0.60;99.90;;;;;;5069922;28;20576;-81
2023/12/04 02:15:10;;;;;;;21.93;11.23;;;-0.60;99.90;;;;;;5069683;28;20269;-79
2023/12/04 02:17:38;;;;;;;22.90;10.83;;;-0.70;99.90;;;;;;5071999;28;20285;-80
2023/12/04 02:20:07;;;;;;;22.17;10.13;;;-0.60;99.90;;;;;;5067103;28;20237;-78
2023/12/04 02:22:35;;;;;;;24.33;12.53;;;-0.60;99.90;;;;;;5069789;28;20244;-80
2023/12/04 02:25:04;;;;;;;21.60;11.60;;;-0.50;99.90;;;;;;5065812;28;20712;-80
2023/12/04 02:27:38;;;;;;;21.60;10.43;;;-0.50;99.90;;;;;;5070813;28;20202;-78
2023/12/04 02:30:09;;;;;;;25.17;12.83;;;-0.60;99.90;;;;;;5071981;28;20703;-78
2023/12/04 02:32:39;;;;;;;21.73;9.90;;;-0.50;99.90;;;;;;5072885;28;20194;-78
2023/12/04 02:35:09;;;;;;;22.93;10.90;;;-0.50;99.90;;;;;;5073872;28;20620;-80
2023/12/04 02:37:36;;;;;;;22.53;10.80;;;-0.40;99.80;;;;;;5063015;28;20214;-78
2023/12/04 02:40:06;;;;;;;21.47;10.20;;;-0.40;99.90;;;;;;5066580;28;20225;-79
2023/12/04 02:42:33;;;;;;;19.87;9.00;;;-0.40;99.90;;;;;;5063141;28;20253;-79
2023/12/04 02:45:00;;;;;;;20.33;10.37;;;-0.40;73.90;;;;;;5069152;28;20205;-78
2023/12/04 02:47:26;;;;;;;20.87;10.03;;;-0.30;1.00;;;;;;5067183;28;20195;-78
2023/12/04 02:49:53;;;;;;;21.20;10.80;;;-0.20;1.00;;;;;;5067718;28;20738;-78
2023/12/04 02:52:20;;;;;;;20.93;11.33;;;-0.20;1.00;;;;;;5065141;28;20567;-79
2023/12/04 02:54:47;;;;;;;20.60;11.10;;;-0.20;1.00;;;;;;5067156;28;20684;-78
2023/12/04 02:57:15;;;;;;;20.80;8.87;;;-0.20;1.00;;;;;;5067227;28;20226;-79
2023/12/04 02:59:42;;;;;;;19.90;8.77;;;-0.20;1.00;;;;;;5061463;28;20221;-78
2023/12/04 03:02:09;;;;;;;19.90;8.87;;;-0.20;1.00;;;;;;5068199;28;20660;-78
2023/12/04 03:04:36;;;;;;;18.93;10.03;;;-0.10;1.00;;;;;;5071541;28;20674;-80
2023/12/04 03:07:03;;;;;;;19.37;9.97;;;-0.10;1.00;;;;;;5070471;28;20198;-79
2023/12/04 03:09:29;;;;;;;19.57;9.80;;;-0.10;1.00;;;;;;5063549;28;20222;-80
2023/12/04 03:11:56;;;;;;;18.87;9.37;;;-0.10;1.00;;;;;;5066462;28;20207;-79
2023/12/04 03:14:25;;;;;;;19.73;9.10;;;-0.10;99.90;;;;;;5069742;28;20272;-78
2023/12/04 03:16:52;;;;;;;20.43;9.83;;;-0.10;99.90;;;;;;5064331;28;20254;-80
2023/12/04 03:19:18;;;;;;;18.67;8.83;;;0.00;99.90;;;;;;5064441;28;20219;-78
2023/12/04 03:21:45;;;;;;;19.70;9.20;;;0.00;99.90;;;;;;5065401;28;20680;-78
2023/12/04 03:24:12;;;;;;;16.80;8.27;;;-0.10;99.90;;;;;;5064786;28;20581;-80
2023/12/04 03:26:39;;;;;;;20.00;9.87;;;0.00;99.90;;;;;;5069741;28;20190;-80
2023/12/04 03:29:05;;;;;;;17.90;9.20;;;0.00;99.90;;;;;;5067394;28;20309;-78
2023/12/04 03:31:34;;;;;;;17.80;8.23;;;0.00;99.90;;;;;;5071008;28;20217;-80
2023/12/04 03:34:01;;;;;;;17.90;8.20;;;0.30;99.90;;;;;;5070297;28;20206;-79
2023/12/04 03:36:27;;;;;;;17.63;8.17;;;0.00;99.90;;;;;;5074969;28;20690;-79
2023/12/04 03:38:54;;;;;;;21.30;11.40;;;0.00;99.90;;;;;;5072076;28;20253;-78
2023/12/04 03:41:22;;;;;;;18.00;8.87;;;0.00;94.30;;;;;;5067270;28;20345;-79
2023/12/04 03:43:48;;;;;;;20.63;8.97;;;0.10;99.90;;;;;;5072793;28;20766;-79
2023/12/04 03:46:15;;;;;;;17.57;7.90;;;0.00;99.90;;;;;;5070002;28;20213;-78
2023/12/04 03:48:43;;;;;;;17.53;8.53;;;0.00;99.90;;;;;;5070273;28;20313;-79
2023/12/04 03:51:10;;;;;;;18.53;9.07;;;0.00;95.60;;;;;;5072592;28;20589;-80
2023/12/04 03:53:37;;;;;;;18.00;9.43;;;0.00;99.90;;;;;;5073692;28;22601;-79
2023/12/04 03:56:05;;;;;;;19.40;8.80;;;0.00;99.90;;;;;;5069639;28;20658;-81
2023/12/04 03:58:33;;;;;;;16.37;8.17;;;0.00;1.00;;;;;;5075296;28;20309;-79
2023/12/04 04:01:00;;;;;;;18.60;8.93;;;0.10;1.00;;;;;;5066576;28;20198;-79
2023/12/04 04:03:27;;;;;;;17.00;8.37;;;0.00;19.00;;;;;;5072775;28;20725;-79
2023/12/04 04:05:55;;;;;;;17.90;9.70;;;0.00;1.00;;;;;;5065338;28;20727;-79
2023/12/04 04:08:22;;;;;;;15.27;8.70;;;0.00;1.00;;;;;;5070041;28;20301;-79
2023/12/04 04:10:48;;;;;;;18.33;8.50;;;0.00;1.00;;;;;;5067760;28;20293;-78
2023/12/04 04:13:15;;;;;;;18.00;8.10;;;0.00;1.00;;;;;;5072706;28;20297;-77
2023/12/04 04:15:42;;;;;;;17.73;8.70;;;0.00;1.00;;;;;;5064379;28;20236;-77
2023/12/04 04:18:09;;;;;;;18.90;8.50;;;0.00;1.00;;;;;;5064913;28;20728;-77
2023/12/04 04:20:36;;;;;;;17.93;8.90;;;0.00;1.00;;;;;;5067633;28;20298;-78
2023/12/04 04:23:04;;;;;;;17.27;8.63;;;0.10;1.00;;;;;;5065019;28;20198;-78
2023/12/04 04:25:31;;;;;;;17.80;8.27;;;0.10;1.00;;;;;;5068630;28;20266;-77
2023/12/04 04:27:57;;;;;;;19.10;8.60;;;0.10;1.00;;;;;;5066518;28;20195;-78
2023/12/04 04:30:24;;;;;;;16.20;7.93;;;0.20;1.00;;;;;;5069528;28;20746;-77
2023/12/04 04:32:51;;;;;;;15.77;7.53;;;0.20;1.00;;;;;;5073231;28;20207;-77
2023/12/04 04:35:18;;;;;;;16.23;8.13;;;0.10;1.00;;;;;;5071316;28;20689;-78
2023/12/04 04:37:45;;;;;;;17.63;9.40;;;0.20;1.00;;;;;;5068633;28;20238;-77
2023/12/04 04:40:13;;;;;;;18.43;8.30;;;0.20;1.00;;;;;;5071769;28;20240;-77
2023/12/04 04:42:40;;;;;;;15.33;7.37;;;0.10;1.00;;;;;;5071686;28;20202;-78
2023/12/04 04:45:07;;;;;;;17.37;8.47;;;0.30;1.00;;;;;;5074475;28;20194;-77
2023/12/04 04:47:34;;;;;;;16.83;8.83;;;0.20;1.00;;;;;;5074967;28;21195;-78
2023/12/04 04:50:01;;;;;;;14.97;8.57;;;0.20;1.00;;;;;;5064538;28;20226;-77
2023/12/04 04:52:28;;;;;;;15.17;7.70;;;0.40;1.00;;;;;;5071224;28;20583;-77
2023/12/04 04:54:54;;;;;;;16.30;7.40;;;0.30;1.00;;;;;;5073864;28;20270;-78
2023/12/04 04:57:23;;;;;;;15.07;8.10;;;0.30;1.00;;;;;;5073809;28;20852;-78
2023/12/04 04:59:49;;;;;;;20.37;9.27;;;0.30;1.00;;;;;;5068475;28;20222;-77
2023/12/04 05:02:16;;;;;;;25.30;7.63;;;0.30;1.00;;;;;;5063095;28;20213;-78
2023/12/04 05:04:43;;;;;;;17.83;7.47;;;0.30;1.00;;;;;;5062253;28;20608;-77
2023/12/04 05:07:10;;;;;;;20.43;8.03;;;0.30;1.00;;;;;;5065856;28;20205;-78
2023/12/04 05:09:37;;;;;;;15.60;8.77;;;0.30;1.00;;;;;;5063069;28;20229;-78
2023/12/04 05:12:04;;;;;;;16.30;8.90;;;0.20;1.00;;;;;;5061671;28;20207;-77
2023/12/04 05:14:32;;;;;;;16.73;7.87;;;0.30;1.00;;;;;;5068219;28;20229;-77
2023/12/04 05:16:59;;;;;;;16.60;7.73;;;0.30;1.00;;;;;;5062378;28;20282;-77
2023/12/04 05:19:26;;;;;;;16.80;8.03;;;0.30;1.00;;;;;;5061965;28;20246;-78
2023/12/04 05:21:52;;;;;;;15.03;7.77;;;0.30;1.00;;;;;;5065793;28;20286;-78
2023/12/04 05:24:19;;;;;;;16.27;7.53;;;0.30;1.00;;;;;;5067327;28;20290;-78
2023/12/04 05:26:46;;;;;;;17.67;8.43;;;0.30;1.00;;;;;;5070757;28;20542;-78
2023/12/04 05:29:13;;;;;;;15.63;7.30;;;0.30;1.00;;;;;;5065308;28;20222;-77
2023/12/04 05:31:41;;;;;;;16.63;8.87;;;0.30;1.00;;;;;;5063352;28;20213;-78
2023/12/04 05:34:08;;;;;;;15.70;7.37;;;0.30;1.00;;;;;;5065722;28;20194;-78
2023/12/04 05:36:34;;;;;;;15.73;8.43;;;0.30;1.00;;;;;;5068727;28;20198;-77
2023/12/04 05:39:01;;;;;;;16.80;7.57;;;0.30;1.00;;;;;;5073037;28;20813;-78
2023/12/04 05:41:28;;;;;;;18.67;8.37;;;0.30;1.00;;;;;;5069485;28;20231;-78
2023/12/04 05:43:55;;;;;;;16.03;7.43;;;0.20;1.00;;;;;;5064348;28;20218;-78
2023/12/04 05:46:21;;;;;;;15.40;8.23;;;0.20;1.00;;;;;;5069501;28;20228;-78
2023/12/04 05:48:49;;;;;;;14.40;7.57;;;0.20;1.00;;;;;;5065770;28;20703;-78
2023/12/04 05:51:16;;;;;;;16.50;8.17;;;0.20;1.00;;;;;;5069438;28;20233;-78
2023/12/04 05:53:43;;;;;;;15.67;8.40;;;0.30;1.00;;;;;;5065624;28;20201;-78
2023/12/04 05:56:11;;;;;;;16.67;8.33;;;0.30;1.00;;;;;;5064915;28;20234;-78
2023/12/04 05:58:37;;;;;;;16.83;7.83;;;0.30;1.00;;;;;;5065170;28;20226;-78
2023/12/04 06:01:06;;;;;;;15.73;8.83;;;0.30;1.00;;;;;;5057089;28;20199;-79
2023/12/04 06:03:32;;;;;;;16.93;8.57;;;0.30;1.00;;;;;;5071653;28;20241;-78
2023/12/04 06:06:01;;;;;;;17.43;7.80;;;0.30;1.00;;;;;;5067919;28;20205;-78
2023/12/04 06:08:27;;;;;;;18.10;8.83;;;0.30;1.00;;;;;;5066719;28;20294;-78
2023/12/04 06:10:54;;;;;;;17.87;8.40;;;0.30;1.00;;;;;;5059044;28;20198;-78
2023/12/04 06:13:21;;;;;;;17.30;8.20;;;0.30;1.00;;;;;;5063506;28;20228;-78
2023/12/04 06:15:48;;;;;;;15.93;7.57;;;0.30;1.00;;;;;;5060363;28;20653;-78
2023/12/04 06:18:14;;;;;;;15.70;7.97;;;0.30;1.00;;;;;;5073631;28;20847;-78
2023/12/04 06:20:41;;;;;;;15.83;7.33;;;0.30;1.00;;;;;;5067350;28;20202;-78
2023/12/04 06:23:10;;;;;;;18.80;9.10;;;0.20;1.00;;;;;;5060346;28;20685;-78
2023/12/04 06:25:38;;;;;;;17.13;8.77;;;0.20;1.00;;;;;;5066078;28;20569;-78
2023/12/04 06:28:05;;;;;;;18.03;8.77;;;0.20;1.00;;;;;;5064559;28;20645;-78
2023/12/04 06:30:33;;;;;;;19.83;9.97;;;0.20;1.00;;;;;;5070182;28;20215;-78
2023/12/04 06:33:00;;;;;;;18.33;8.53;;;0.20;1.00;;;;;;5066238;28;20211;-79
2023/12/04 06:35:27;;;;;;;16.87;7.63;;;0.10;1.00;;;;;;5070204;28;20209;-78
2023/12/04 06:37:55;;;;;;;17.93;8.87;;;0.10;1.00;;;;;;5069646;28;20222;-78
2023/12/04 06:40:24;;;;;;;18.10;8.67;;;0.10;1.00;;;;;;5068611;28;20293;-78
2023/12/04 06:42:52;;;;;;;15.93;8.77;;;0.20;1.00;;;;;;5071276;28;20641;-78
2023/12/04 06:45:19;;;;;;;16.90;7.80;;;0.20;1.00;;;;;;5068735;28;20266;-78
2023/12/04 06:47:49;;;;;;;17.30;9.50;;;0.20;1.00;;;;;;5064945;28;20191;-78
2023/12/04 06:50:16;;;;;;;17.03;8.33;;;0.20;1.00;;;;;;5073041;28;20280;-78
2023/12/04 06:52:43;;;;;;;15.77;9.07;;;0.30;1.00;;;;;;5071069;28;20217;-79
2023/12/04 06:55:10;;;;;;;16.60;8.07;;;0.30;1.00;;;;;;5065595;28;20210;-78
2023/12/04 06:57:38;;;;;;;15.10;7.83;;;0.30;1.00;;;;;;5070632;28;20333;-78
2023/12/04 07:00:07;;;;;;;16.03;8.10;;;0.30;1.00;;;;;;5055745;28;20219;-78
2023/12/04 07:02:34;;;;;;;15.77;7.57;;;0.40;1.00;;;;;;5062801;28;20211;-78
2023/12/04 07:05:03;;;;;;;15.37;8.07;;;0.50;1.00;;;;;;5059162;28;20217;-79
2023/12/04 07:07:29;;;;;;;17.73;8.73;;;0.50;1.00;;;;;;5066026;28;20198;-78
2023/12/04 07:09:56;;;;;;;14.70;8.13;;;0.50;1.00;;;;;;5058857;28;20600;-78
2023/12/04 07:12:23;;;;;;;15.17;8.30;;;0.50;1.00;;;;;;5072571;28;20209;-78
2023/12/04 07:14:51;;;;;;;15.97;9.00;;;0.50;1.00;;;;;;5064006;28;20228;-78
2023/12/04 07:17:18;;;;;;;15.60;8.43;;;0.60;1.00;;;;;;5063487;28;20229;-79
2023/12/04 07:19:45;;;;;;;16.30;8.00;;;0.50;1.00;;;;;;5059016;28;20229;-78
2023/12/04 07:22:12;;;;;;;16.60;8.20;;;0.50;99.90;;;;;;5056787;28;20544;-78
2023/12/04 07:24:38;;;;;;;15.03;7.23;;;0.50;99.90;;;;;;5062074;28;20205;-78
2023/12/04 07:27:06;;;;;;;15.97;7.97;;;0.60;99.90;;;;;;5060009;28;20210;-78
2023/12/04 07:29:33;;;;;;;17.63;10.00;;;0.50;99.90;;;;;;5062659;28;20268;-78
2023/12/04 07:32:01;;;;;;;17.07;9.30;;;0.50;99.90;;;;;;5063966;28;20205;-78
2023/12/04 07:34:28;;;;;;;16.67;7.73;;;0.60;99.90;;;;;;5062057;28;20199;-78
2023/12/04 07:36:55;;;;;;;16.73;7.97;;;0.60;99.90;;;;;;5065086;28;20198;-78
2023/12/04 07:39:21;;;;;;;15.83;7.00;;;0.60;1.00;;;;;;5065105;28;20228;-78
2023/12/04 07:41:48;;;;;;;16.17;7.07;;;0.60;99.90;;;;;;5065993;28;20285;-78
2023/12/04 07:44:15;;;;;;;16.27;7.70;;;0.60;99.90;;;;;;5067568;28;20204;-78
2023/12/04 07:46:42;;;;;;;14.93;7.30;;;0.60;99.90;;;;;;5065826;28;20205;-78
2023/12/04 07:49:10;;;;;;;15.63;8.70;;;0.60;99.90;;;;;;5069526;28;20585;-78
2023/12/04 07:51:37;;;;;;;15.60;7.60;;;0.70;99.90;;;;;;5067481;28;20766;-78
2023/12/04 07:54:05;;;;;;;16.30;8.07;;;0.70;99.90;;;;;;5070042;28;20206;-78
2023/12/04 07:56:31;;;;;;;16.60;8.83;;;0.80;99.90;;;;;;5070373;28;20210;-78
2023/12/04 07:58:58;;;;;;;13.53;7.13;;;0.70;99.90;;;;;;5065018;28;20745;-78
2023/12/04 08:01:25;;;;;;;13.83;7.23;;;0.70;99.90;;;;;;5071536;28;20206;-78
2023/12/04 08:03:52;;;;;;;13.77;7.43;;;0.80;99.90;;;;;;5067906;28;20199;-78
2023/12/04 08:06:20;;;;;;;17.47;8.40;;;0.70;99.90;;;;;;5068214;28;20205;-78
2023/12/04 08:08:47;;;;;;;15.73;8.33;;;0.70;99.90;;;;;;5062740;28;20215;-78
2023/12/04 08:11:14;;;;;;;17.80;8.83;;;0.80;99.90;;;;;;5059163;28;20692;-78
2023/12/04 08:13:40;;;;;;;19.93;10.10;;;0.80;99.90;;;;;;5062277;28;20214;-78
2023/12/04 08:16:14;;;;;;;19.00;9.80;;;0.60;99.90;;;;;;5058469;28;20195;-78
2023/12/04 08:18:41;;;;;;;17.73;10.27;;;0.60;99.90;;;;;;5059727;28;20292;-78
2023/12/04 08:21:09;;;;;;;18.90;9.03;;;0.60;99.90;;;;;;5064079;28;20203;-78
2023/12/04 08:23:37;;;;;;;18.00;8.83;;;0.60;1.00;;;;;;5070052;28;20285;-78
2023/12/04 08:26:04;;;;;;;18.03;8.87;;;0.70;1.00;;;;;;5067042;28;20204;-78
2023/12/04 08:28:31;;;;;;;15.23;8.60;;;0.70;1.00;;;;;;5074429;28;20198;-78
2023/12/04 08:30:58;;;;;;;16.70;8.17;;;0.70;1.00;;;;;;5069424;28;20622;-78
2023/12/04 08:33:25;;;;;;;18.77;9.00;;;0.60;1.00;;;;;;5066891;28;20668;-79
2023/12/04 08:35:52;;;;;;;17.83;10.30;;;0.50;1.00;;;;;;5067801;28;20205;-79
2023/12/04 08:38:18;;;;;;;20.23;9.87;;;0.50;99.90;;;;;;5065728;28;20218;-78
2023/12/04 08:40:47;;;;;;;17.00;9.00;;;0.70;1.00;;;;;;5070067;28;20703;-79
2023/12/04 08:43:14;;;;;;;20.37;10.07;;;0.60;99.90;;;;;;5072808;28;20411;-78
2023/12/04 08:45:41;;;;;;;15.90;8.23;;;0.50;99.90;;;;;;5069336;28;20194;-78
2023/12/04 08:48:08;;;;;;;17.07;8.13;;;0.60;99.90;;;;;;5072227;28;20194;-78
2023/12/04 08:50:36;;;;;;;17.30;8.40;;;0.60;99.90;;;;;;5070536;28;21959;-78
2023/12/04 08:53:03;;;;;;;15.10;7.83;;;0.60;99.90;;;;;;5071740;28;20212;-78
2023/12/04 08:55:30;;;;;;;16.63;8.40;;;0.60;99.90;;;;;;5071997;28;20202;-78
2023/12/04 08:57:58;;;;;;;17.53;9.83;;;0.60;99.90;;;;;;5072842;28;20244;-78
2023/12/04 09:00:25;;;;;;;17.63;7.97;;;0.70;99.90;;;;;;5073493;28;20225;-78
2023/12/04 09:02:52;;;;;;;14.70;7.50;;;0.60;99.90;;;;;;5071886;28;20201;-78
2023/12/04 09:05:19;;;;;;;17.33;7.93;;;0.70;99.90;;;;;;5074739;28;20206;-78
2023/12/04 09:07:46;;;;;;;16.07;7.90;;;0.70;99.90;;;;;;5072018;28;20208;-78
2023/12/04 09:10:13;;;;;;;14.80;7.63;;;0.80;99.90;;;;;;5073876;28;20219;-78
2023/12/04 09:12:41;;;;;;;15.70;8.50;;;0.80;99.90;;;;;;5073139;28;20656;-78
2023/12/04 09:15:09;;;;;;;16.47;7.37;;;0.70;99.90;;;;;;5064637;28;20658;-78
2023/12/04 09:17:36;;;;;;;16.87;8.10;;;0.80;99.90;;;;;;5058990;28;20203;-78
2023/12/04 09:20:05;;;;;;;16.10;7.97;;;0.70;99.90;;;;;;5059388;28;20214;-78
2023/12/04 09:22:32;;;;;;;15.87;7.03;;;0.90;99.90;;;;;;5065084;28;20216;-78
2023/12/04 09:24:59;;;;;;;15.47;6.77;;;0.90;99.90;;;;;;5060625;28;20202;-78
2023/12/04 09:27:25;;;;;;;14.50;6.73;;;0.90;99.90;;;;;;5070122;28;20202;-78
2023/12/04 09:29:52;;;;;;;14.07;6.90;;;0.90;99.90;;;;;;5060989;28;20215;-78
2023/12/04 09:32:20;;;;;;;15.80;7.80;;;1.00;99.90;;;;;;5067937;28;20321;-78
2023/12/04 09:34:47;;;;;;;15.77;8.10;;;1.00;99.90;;;;;;5071519;28;20252;-77
2023/12/04 09:37:14;;;;;;;14.27;7.23;;;1.10;99.90;;;;;;5074278;28;20748;-79
2023/12/04 09:39:41;;;;;;;16.83;7.87;;;1.10;99.90;;;;;;5074075;28;20236;-78
2023/12/04 09:42:08;;;;;;;17.53;8.30;;;1.20;99.90;;;;;;5074234;28;20199;-78
2023/12/04 09:44:37;;;;;;;15.67;7.50;;;1.10;99.90;;;;;;5074045;28;20198;-78
2023/12/04 09:47:05;;;;;;;15.47;8.20;;;1.10;99.90;;;;;;5074127;28;20293;-77
2023/12/04 09:49:34;;;;;;;15.00;5.80;;;1.20;99.90;;;;;;5073548;28;20230;-77
2023/12/04 09:52:02;;;;;;;18.10;8.27;;;1.20;99.90;;;;;;5073869;28;20282;-77
2023/12/04 09:54:30;;;;;;;14.63;7.70;;;1.30;99.90;;;;;;5064000;28;20198;-77
2023/12/04 09:56:57;;;;;;;16.97;9.17;;;1.30;99.90;;;;;;5053928;28;20203;-77
2023/12/04 09:59:25;;;;;;;16.70;8.63;;;1.30;99.90;;;;;;5053855;28;20616;-78
2023/12/04 10:01:52;;;;;;;11.53;6.43;;;1.30;99.90;;;;;;5054154;28;20206;-78
2023/12/04 10:04:21;;;;;;;15.23;7.40;;;1.20;99.90;;;;;;5053718;28;20213;-79
2023/12/04 10:06:52;;;;;;;14.33;7.90;;;1.30;99.90;;;;;;5053929;28;20748;-77
2023/12/04 10:09:19;;;;;;;14.53;7.00;;;1.40;99.90;;;;;;5053829;28;20219;-78
2023/12/04 10:11:46;;;;;;;15.30;7.73;;;1.50;99.90;;;;;;5053794;28;20268;-79
2023/12/04 10:14:17;;;;;;;12.00;6.80;;;1.60;99.90;;;;;;5053873;28;20683;-78
2023/12/04 10:16:44;;;;;;;14.77;7.40;;;1.40;99.50;;;;;;5053723;28;20206;-79
2023/12/04 10:19:21;;;;;;;14.07;7.03;;;1.60;99.90;;;;;;5053410;28;20580;-78
2023/12/04 10:21:50;;;;;;;12.90;6.70;;;1.40;99.90;;;;;;5053385;28;20186;-79
2023/12/04 10:24:32;;;;;;;14.77;7.37;;;1.50;99.90;;;;;;5053350;28;20207;-78
2023/12/04 10:26:59;;;;;;;16.20;7.43;;;1.60;99.90;;;;;;5052978;28;20191;-79
2023/12/04 10:29:29;;;;;;;15.27;7.37;;;1.60;99.90;;;;;;5053629;28;20223;-79
2023/12/04 10:31:58;;;;;;;14.40;7.07;;;1.50;99.90;;;;;;5053524;28;20253;-80
2023/12/04 10:34:26;;;;;;;13.63;6.73;;;1.50;99.90;;;;;;5053495;28;20297;-78
2023/12/04 10:36:58;;;;;;;13.73;7.03;;;1.40;99.90;;;;;;5053488;28;20207;-78
2023/12/04 10:39:28;;;;;;;13.77;7.77;;;1.40;88.70;;;;;;5053085;28;20317;-77
2023/12/04 10:42:02;;;;;;;14.30;7.13;;;1.40;77.60;;;;;;5053265;28;20206;-79
2023/12/04 10:44:30;;;;;;;14.97;6.90;;;1.50;99.90;;;;;;5053372;28;20198;-79
2023/12/04 10:46:59;;;;;;;15.17;6.83;;;1.40;51.80;;;;;;5053341;28;20205;-79
2023/12/04 10:49:28;;;;;;;16.43;6.67;;;1.40;61.70;;;;;;5052775;28;20231;-78
2023/12/04 10:51:59;;;;;;;15.23;7.30;;;1.30;59.20;;;;;;5053970;28;20191;-78
2023/12/04 10:54:26;;;;;;;13.20;7.20;;;1.30;15.20;;;;;;5054925;28;20625;-79
2023/12/04 10:56:54;;;;;;;12.10;6.53;;;1.40;24.80;;;;;;5063297;28;20199;-77
2023/12/04 10:59:28;;;;;;;11.77;5.80;;;1.40;15.20;;;;;;5074509;28;20222;-78
2023/12/04 11:01:56;;;;;;;12.07;6.50;;;1.40;34.00;;;;;;5074190;28;20186;-78
2023/12/04 11:04:26;;;;;;;13.97;6.90;;;1.50;22.40;;;;;;5074048;28;20210;-78
2023/12/04 11:06:55;;;;;;;14.40;6.90;;;1.50;18.00;;;;;;5074456;28;20202;-78
2023/12/04 11:09:26;;;;;;;13.23;7.47;;;1.60;65.80;;;;;;5073944;28;20352;-78
2023/12/04 11:11:59;;;;;;;14.00;7.90;;;1.50;1.00;;;;;;5073696;28;20201;-79
2023/12/04 11:14:31;;;;;;;15.10;7.80;;;1.60;11.10;;;;;;5074859;28;20190;-79
2023/12/04 11:17:02;;;;;;;13.43;6.83;;;1.70;59.40;;;;;;5074211;28;20197;-78
2023/12/04 11:19:38;;;;;;;14.93;6.43;;;1.70;66.80;;;;;;5074542;28;20688;-78
2023/12/04 11:22:07;;;;;;;12.87;6.37;;;1.50;32.70;;;;;;5075220;28;20254;-79
2023/12/04 11:24:36;;;;;;;13.07;6.33;;;1.60;10.60;;;;;;5075426;28;20198;-78
2023/12/04 11:27:04;;;;;;;13.13;7.60;;;1.60;10.80;;;;;;5074660;28;20309;-79
2023/12/04 11:29:31;;;;;;;13.07;6.63;;;1.70;11.70;;;;;;5074229;28;20578;-79
2023/12/04 11:31:58;;;;;;;12.17;6.67;;;1.70;1.00;;;;;;5074021;28;20202;-80
2023/12/04 11:34:26;;;;;;;14.33;7.20;;;1.70;12.40;;;;;;5074391;28;20649;-78
2023/12/04 11:36:53;;;;;;;11.87;6.13;;;1.70;18.90;;;;;;5073489;28;20203;-78
2023/12/04 11:39:20;;;;;;;14.47;6.70;;;1.50;1.00;;;;;;5073947;28;20593;-79
2023/12/04 11:41:48;;;;;;;13.10;6.53;;;1.50;1.00;;;;;;5073883;28;20202;-78
2023/12/04 11:44:15;;;;;;;11.17;6.00;;;1.60;1.00;;;;;;5073441;28;20229;-80
2023/12/04 11:46:57;;;;;;;11.17;5.73;;;1.60;1.00;;;;;;5074653;28;20664;-79
2023/12/04 11:49:31;;;;;;;12.10;6.30;;;1.70;1.00;;;;;;5074687;28;20722;-79
2023/12/04 11:52:00;;;;;;;11.50;5.83;;;1.70;1.00;;;;;;5074283;28;20221;-79
2023/12/04 11:54:28;;;;;;;13.23;7.07;;;1.80;1.00;;;;;;5076466;28;20210;-79
2023/12/04 11:57:01;;;;;;;13.77;7.03;;;1.70;1.00;;;;;;5078916;28;20303;-78
2023/12/04 11:59:28;;;;;;;12.93;6.20;;;1.80;1.00;;;;;;5077994;28;20269;-79
2023/12/04 12:01:56;;;;;;;12.40;6.50;;;1.80;1.00;;;;;;5078614;28;20263;-79
2023/12/04 12:04:24;;;;;;;14.17;7.33;;;1.90;1.00;;;;;;5078539;28;20203;-78
2023/12/04 12:06:51;;;;;;;12.57;6.50;;;2.00;1.00;;;;;;5078399;28;20202;-80
2023/12/04 12:09:18;;;;;;;12.07;6.30;;;2.00;1.00;;;;;;5078589;28;20616;-78
2023/12/04 12:11:46;;;;;;;11.77;6.30;;;2.10;1.00;;;;;;5077532;28;20214;-79
2023/12/04 12:14:14;;;;;;;12.50;6.53;;;2.20;5.40;;;;;;5077958;28;20720;-79
2023/12/04 12:16:41;;;;;;;12.50;6.60;;;2.20;42.60;;;;;;5077747;28;20202;-79
2023/12/04 12:19:08;;;;;;;12.27;5.80;;;2.10;1.00;;;;;;5077353;28;20230;-78
2023/12/04 12:21:35;;;;;;;11.83;6.03;;;2.00;1.00;;;;;;5077521;28;20217;-79
2023/12/04 12:24:02;;;;;;;13.77;6.60;;;2.10;1.00;;;;;;5077280;28;20208;-78
2023/12/04 12:26:30;;;;;;;10.33;5.63;;;2.10;1.00;;;;;;5077326;28;20208;-80
2023/12/04 12:28:57;;;;;;;11.43;5.60;;;2.10;1.00;;;;;;5076876;28;20738;-78
2023/12/04 12:31:25;;;;;;;11.87;6.10;;;2.10;1.00;;;;;;5077161;28;20544;-78
2023/12/04 12:33:52;;;;;;;10.73;5.70;;;2.00;1.00;;;;;;5077534;28;20205;-79
2023/12/04 12:36:19;;;;;;;13.17;5.90;;;2.00;1.00;;;;;;5077517;28;20203;-81
2023/12/04 12:38:49;;;;;;;11.60;5.73;;;2.00;1.00;;;;;;5076906;28;20221;-78
2023/12/04 12:41:16;;;;;;;10.43;5.70;;;2.00;1.00;;;;;;5076058;28;20715;-79
2023/12/04 12:43:43;;;;;;;11.07;5.90;;;1.90;1.00;;;;;;5072336;28;20225;-78
2023/12/04 12:46:11;;;;;;;10.03;5.80;;;2.00;1.00;;;;;;5070338;28;20216;-78
2023/12/04 12:48:39;;;;;;;12.77;6.37;;;2.00;1.00;;;;;;5077065;28;20222;-79